Check out our new BloomSky Weather System.

Active alerts

Houston, TX
  Details for Houston, TX River Flood Warning  +1 additional alert
Fort Bend, TX
  Details for Fort Bend, TX River Flood Warning  +2 additional alerts


Thunder radar  blitzortung!


Rain radar more information rain snow radar


Visit our other weather sites:

Template documentation
and downloads

And another site



Weather Underground History page Text

Daily Summary for January 24, 2018 Units:  Metric    English   Both
« Previous Day
Next Day »
Daily Weekly Monthly Yearly Custom
  High: Low: Average:
Temperature: -17.8 °C 2.5 °C 9.5 °C
Dew Point: -17.8 °C -2.2 °C -0.5 °C
Humidity: Humidity % 24 % 54 %
Wind Speed: 0 km/h 0 km/h 1.3 km/h
Wind Gust: 0 km/h - -
Wind:- - South
Pressure: 0 hPa 1026.6 hPa -
Precipitation: 0 mm    
Historical Graphs
 
 
Tabular Data for January 24, 2018
Time Temperature Dew Point Pressure Wind Wind Speed Wind Gust Humidity Rainfall Rate (Hourly)
-17.8 °C -17.8 °C 0 hPa Calm     Humidity % 0 mm
00:04 5.1 °C 1.6 °C 1026.6 hPa Calm   1.6 km/h 78 % 0 mm
00:09 5.2 °C 1.5 °C 1026.6 hPa Calm   1.6 km/h 77 % 0 mm
00:14 5.3 °C 1.2 °C 1026.6 hPa Calm   1.6 km/h 75 % 0 mm
00:19 5.3 °C 1 °C 1026.6 hPa Calm   1.6 km/h 74 % 0 mm
00:24 5.3 °C 0.9 °C 1026.6 hPa Calm   1.6 km/h 73 % 0 mm
00:29 5.2 °C 0.8 °C 1026.6 hPa Calm   1.6 km/h 73 % 0 mm
00:34 4.9 °C 0.5 °C 1027 hPa Calm     73 % 0 mm
00:39 4.6 °C 0.2 °C 1027 hPa Calm     73 % 0 mm
00:44 4.3 °C 0.1 °C 1027 hPa Calm     74 % 0 mm
00:49 4.1 °C 0.1 °C 1027.3 hPa Calm     75 % 0 mm
00:54 4.1 °C 0.4 °C 1027 hPa Calm     77 % 0 mm
00:59 4.1 °C 0.4 °C 1027.3 hPa Calm     77 % 0 mm
01:04 3.9 °C 0.1 °C 1027.3 hPa Calm     76 % 0 mm
01:09 3.6 °C -0.2 °C 1027.3 hPa Calm     76 % 0 mm
01:14 3.3 °C -0.5 °C 1027.3 hPa Calm     76 % 0 mm
01:19 3.1 °C -0.5 °C 1027.3 hPa Calm     77 % 0 mm
01:24 2.9 °C -0.4 °C 1027.3 hPa Calm     79 % 0 mm
01:29 2.9 °C -0.4 °C 1027.3 hPa Calm     79 % 0 mm
01:39 3 °C 0.1 °C 1027.7 hPa Calm     81 % 0 mm
01:54 3.3 °C 0.2 °C 1027.7 hPa Calm     80 % 0 mm
02:00 3.2 °C 0.1 °C 1027.7 hPa Calm     80 % 0 mm
02:04 3.2 °C 0.1 °C 1027.7 hPa Calm     80 % 0 mm
02:10 3.1 °C -0.2 °C 1027.7 hPa Calm     79 % 0 mm
02:15 2.9 °C -0.2 °C 1027.7 hPa Calm     80 % 0 mm
02:20 2.8 °C -0.3 °C 1027.7 hPa Calm     80 % 0 mm
02:25 2.7 °C -0.2 °C 1027.7 hPa Calm     81 % 0 mm
02:35 2.5 °C -0.4 °C 1028 hPa Calm     81 % 0 mm
02:40 2.5 °C -0.1 °C 1028 hPa Calm     83 % 0 mm
02:45 2.7 °C 0.3 °C 1028 hPa Calm     84 % 0 mm
02:50 2.8 °C 0.2 °C 1028 hPa Calm     83 % 0 mm
02:55 2.7 °C -0.1 °C 1028 hPa Calm     82 % 0 mm
03:00 2.6 °C -0.2 °C 1028 hPa Calm     82 % 0 mm
03:05 2.6 °C 0 °C 1028.3 hPa Calm     83 % 0 mm
03:10 2.6 °C 0.2 °C 1028 hPa Calm     84 % 0 mm
03:15 2.6 °C 0.2 °C 1028.3 hPa Calm     84 % 0 mm
03:30 2.7 °C 0.4 °C 1028 hPa Calm   1.6 km/h 85 % 0 mm
03:35 2.8 °C 0.5 °C 1028 hPa Calm   1.6 km/h 85 % 0 mm
03:40 2.8 °C 0.4 °C 1028 hPa Calm   1.6 km/h 84 % 0 mm
03:45 2.9 °C 0.3 °C 1028.3 hPa Calm   1.6 km/h 83 % 0 mm
03:50 2.8 °C 0 °C 1028.3 hPa Calm   1.6 km/h 82 % 0 mm
03:55 2.9 °C 0 °C 1028 hPa Calm   1.6 km/h 81 % 0 mm
04:00 3 °C -0.1 °C 1028.3 hPa Calm   1.6 km/h 80 % 0 mm
04:05 3.3 °C -0.2 °C 1028.3 hPa Calm   1.6 km/h 78 % 0 mm
04:11 3.5 °C -0.2 °C 1028.3 hPa Calm   1.6 km/h 77 % 0 mm
04:16 3.6 °C -0.2 °C 1028.3 hPa Calm   1.6 km/h 76 % 0 mm
04:21 3.7 °C -0.3 °C 1028.3 hPa Calm   1.6 km/h 75 % 0 mm
04:26 3.6 °C -0.4 °C 1028.3 hPa Calm   1.6 km/h 75 % 0 mm
04:31 3.6 °C -0.4 °C 1028.3 hPa Calm   1.6 km/h 75 % 0 mm
04:36 3.6 °C -0.4 °C 1028.3 hPa Calm   3.2 km/h 75 % 0 mm
04:41 3.6 °C -0.6 °C 1028.3 hPa Calm   3.2 km/h 74 % 0 mm
04:46 3.7 °C -0.5 °C 1028.3 hPa NNW 1.6 km/h 3.2 km/h 74 % 0 mm
04:51 3.7 °C -0.5 °C 1028.7 hPa Calm   3.2 km/h 74 % 0 mm
04:56 3.8 °C -0.6 °C 1028.7 hPa NNW 1.6 km/h 3.2 km/h 73 % 0 mm
05:01 3.9 °C -0.5 °C 1028.7 hPa Calm   3.2 km/h 73 % 0 mm
05:06 3.9 °C -0.7 °C 1028.7 hPa Calm   3.2 km/h 72 % 0 mm
05:11 3.9 °C -0.7 °C 1028.7 hPa Calm   3.2 km/h 72 % 0 mm
05:16 4 °C -0.6 °C 1028.7 hPa Calm   1.6 km/h 72 % 0 mm
05:21 4 °C -0.8 °C 1028.7 hPa Calm   1.6 km/h 71 % 0 mm
05:26 4.1 °C -0.7 °C 1028.7 hPa Calm   1.6 km/h 71 % 0 mm
05:31 4 °C -0.8 °C 1029 hPa Calm   1.6 km/h 71 % 0 mm
05:36 3.9 °C -1.1 °C 1029 hPa Calm   1.6 km/h 70 % 0 mm
05:41 3.8 °C -1 °C 1029 hPa Calm   1.6 km/h 71 % 0 mm
05:46 3.7 °C -1.1 °C 1029 hPa Calm   1.6 km/h 71 % 0 mm
05:51 3.8 °C -0.8 °C 1029 hPa Calm   1.6 km/h 72 % 0 mm
05:56 3.7 °C -0.9 °C 1029.3 hPa Calm   1.6 km/h 72 % 0 mm
06:01 3.7 °C -1.1 °C 1029.3 hPa Calm   1.6 km/h 71 % 0 mm
06:06 3.7 °C -1.1 °C 1029.3 hPa Calm   1.6 km/h 71 % 0 mm
06:11 3.7 °C -1.1 °C 1029.3 hPa Calm   3.2 km/h 71 % 0 mm
06:17 3.7 °C -1.1 °C 1029.3 hPa NNW 3.2 km/h 3.2 km/h 71 % 0 mm
06:22 3.8 °C -1 °C 1029.3 hPa North 1.6 km/h 3.2 km/h 71 % 0 mm
06:27 3.8 °C -1.2 °C 1029.3 hPa Calm   3.2 km/h 70 % 0 mm
06:29 3.8 °C -1.2 °C 1029.3 hPa Calm   3.2 km/h 70 % 0 mm
06:34 3.9 °C -1.1 °C 1029.3 hPa Calm   3.2 km/h 70 % 0 mm
06:39 4 °C -1.2 °C 1029.7 hPa Calm   1.6 km/h 69 % 0 mm
06:44 4.1 °C -1.1 °C 1029.7 hPa Calm   1.6 km/h 69 % 0 mm
06:49 4.2 °C -1.2 °C 1029.7 hPa Calm   3.2 km/h 68 % 0 mm
06:54 4.4 °C -1.2 °C 1030 hPa North 1.6 km/h 3.2 km/h 67 % 0 mm
06:59 4.6 °C -1.2 °C 1030 hPa North 1.6 km/h 3.2 km/h 66 % 0 mm
07:04 4.8 °C -1.2 °C 1030 hPa Calm   3.2 km/h 65 % 0 mm
07:09 4.9 °C -1.3 °C 1030 hPa Calm   6.4 km/h 64 % 0 mm
07:19 4.9 °C -1.3 °C 1030.4 hPa North 1.6 km/h 6.4 km/h 64 % 0 mm
07:24 4.9 °C -1.3 °C 1030.4 hPa Calm   3.2 km/h 64 % 0 mm
07:29 5 °C -1.2 °C 1030.4 hPa North 3.2 km/h 3.2 km/h 64 % 0 mm
07:34 5.1 °C -1.1 °C 1030.4 hPa Calm   3.2 km/h 64 % 0 mm
07:39 5.1 °C -1.1 °C 1030.4 hPa NNE 1.6 km/h 3.2 km/h 64 % 0 mm
07:44 5.1 °C -1.1 °C 1030.7 hPa North 3.2 km/h 3.2 km/h 64 % 0 mm
07:55 5.4 °C -0.9 °C 1030.7 hPa Calm   4.8 km/h 64 % 0 mm
08:00 5.8 °C -0.5 °C 1030.7 hPa NE 1.6 km/h 4.8 km/h 64 % 0 mm
08:05 6.1 °C -0.4 °C 1030.7 hPa Calm   4.8 km/h 63 % 0 mm
08:15 6.7 °C -0.3 °C 1031 hPa Calm   4.8 km/h 61 % 0 mm
08:20 7.1 °C -0.1 °C 1030.7 hPa ENE 1.6 km/h 4.8 km/h 60 % 0 mm
08:25 7.4 °C 0.1 °C 1031 hPa Calm   4.8 km/h 60 % 0 mm
08:30 7.7 °C 0 °C 1031 hPa Calm   4.8 km/h 58 % 0 mm
08:35 8.1 °C 0.3 °C 1031 hPa Calm   4.8 km/h 58 % 0 mm
08:40 8.4 °C -0.1 °C 1031 hPa Calm   8 km/h 55 % 0 mm
08:45 8.7 °C 0.2 °C 1031 hPa Calm   8 km/h 55 % 0 mm
08:50 9.1 °C 0 °C 1031.4 hPa Calm   8 km/h 53 % 0 mm
08:55 9.5 °C -0.1 °C 1031.4 hPa NNW 4.8 km/h 11.3 km/h 51 % 0 mm
09:00 9.8 °C -0.4 °C 1031.4 hPa East 4.8 km/h 11.3 km/h 49 % 0 mm
09:05 9.9 °C -0.3 °C 1031.4 hPa NNW 1.6 km/h 11.3 km/h 49 % 0 mm
09:10 10.1 °C 0.1 °C 1031.4 hPa Calm   11.3 km/h 50 % 0 mm
09:15 10.3 °C 0 °C 1031.4 hPa NNW 6.4 km/h 11.3 km/h 49 % 0 mm
09:20 10.6 °C 0 °C 1031.4 hPa NE 6.4 km/h 14.5 km/h 48 % 0 mm
09:25 10.7 °C -0.2 °C 1031.7 hPa NNE 6.4 km/h 14.5 km/h 47 % 0 mm
09:30 10.7 °C -0.2 °C 1031.7 hPa North 8 km/h 14.5 km/h 47 % 0 mm
09:35 10.9 °C -0.3 °C 1031.7 hPa North 8 km/h 11.3 km/h 46 % 0 mm
09:40 11.3 °C 0.4 °C 1031.7 hPa NNW 1.6 km/h 11.3 km/h 47 % 0 mm
09:45 11.6 °C 0.1 °C 1031.7 hPa ENE 6.4 km/h 11.3 km/h 45 % 0 mm
09:51 11.8 °C -0.1 °C 1031.7 hPa East 6.4 km/h 11.3 km/h 44 % 0 mm
10:01 11.9 °C 0.3 °C 1032.1 hPa ENE 6.4 km/h 16.1 km/h 45 % 0 mm
10:06 12.3 °C 0.1 °C 1032.1 hPa North 9.7 km/h 16.1 km/h 43 % 0 mm
10:11 12.6 °C 0.3 °C 1032.1 hPa Calm   16.1 km/h 43 % 0 mm
10:16 13.1 °C 0.1 °C 1032.1 hPa NNW 1.6 km/h 9.7 km/h 41 % 0 mm
10:21 13.4 °C 0.1 °C 1032.1 hPa ENE 3.2 km/h 9.7 km/h 40 % 0 mm
10:26 13.3 °C -0.4 °C 1032.1 hPa NNW 3.2 km/h 12.9 km/h 39 % 0 mm
10:31 13.5 °C -0.5 °C 1032.1 hPa East 3.2 km/h 12.9 km/h 38 % 0 mm
10:36 13.7 °C 0 °C 1032.1 hPa NE 3.2 km/h 12.9 km/h 39 % 0 mm
10:41 13.9 °C -0.9 °C 1032.1 hPa NE 12.9 km/h 16.1 km/h 36 % 0 mm
10:46 13.9 °C -0.9 °C 1032.1 hPa North 8 km/h 16.1 km/h 36 % 0 mm
10:51 14 °C -0.8 °C 1032.1 hPa North 12.9 km/h 16.1 km/h 36 % 0 mm
10:56 14 °C -1.2 °C 1032.1 hPa NNW 9.7 km/h 16.1 km/h 35 % 0 mm
11:01 14.1 °C -1.1 °C 1032.1 hPa NNE 6.4 km/h 16.1 km/h 35 % 0 mm
11:06 14.3 °C -1.8 °C 1032.1 hPa North 4.8 km/h 17.7 km/h 33 % 0 mm
11:11 14.4 °C -1.3 °C 1032.1 hPa SE 1.6 km/h 17.7 km/h 34 % 0 mm
11:26 15.1 °C -1.1 °C 1031.7 hPa NE 3.2 km/h 14.5 km/h 33 % 0 mm
11:36 15.2 °C -1.4 °C 1031.7 hPa ENE 6.4 km/h 16.1 km/h 32 % 0 mm
11:42 15.5 °C -0.7 °C 1031.4 hPa North 1.6 km/h 16.1 km/h 33 % 0 mm
11:47 15.7 °C -1 °C 1031.4 hPa East 9.7 km/h 16.1 km/h 32 % 0 mm
11:52 15.8 °C -0.9 °C 1031.4 hPa ESE 3.2 km/h 12.9 km/h 32 % 0 mm
11:57 15.9 °C -1.2 °C 1031.4 hPa NE 6.4 km/h 11.3 km/h 31 % 0 mm
12:02 15.9 °C -1.2 °C 1031.4 hPa NNW 1.6 km/h 11.3 km/h 31 % 0 mm
12:07 15.8 °C -1.3 °C 1031 hPa NE 1.6 km/h 11.3 km/h 31 % 0 mm
12:12 16.1 °C -1.5 °C 1031 hPa NNW 3.2 km/h 11.3 km/h 30 % 0 mm
12:17 16.2 °C -1.4 °C 1031 hPa NNE 3.2 km/h 16.1 km/h 30 % 0 mm
12:22 16.2 °C -1.4 °C 1031 hPa WNW 1.6 km/h 16.1 km/h 30 % 0 mm
12:27 16.3 °C -1.8 °C 1031 hPa SE 6.4 km/h 16.1 km/h 29 % 0 mm
12:32 16.2 °C -1.4 °C 1030.7 hPa East 1.6 km/h 14.5 km/h 30 % 0 mm
12:37 16.4 °C -1.7 °C 1030.7 hPa NW 1.6 km/h 14.5 km/h 29 % 0 mm
12:42 16.7 °C -1 °C 1030.7 hPa NE 4.8 km/h 14.5 km/h 30 % 0 mm
12:47 16.9 °C -1.7 °C 1030.4 hPa West 3.2 km/h 12.9 km/h 28 % 0 mm
12:52 17.1 °C -1.6 °C 1030.4 hPa East 3.2 km/h 12.9 km/h 28 % 0 mm
12:57 16.9 °C -1.7 °C 1030.4 hPa Calm   9.7 km/h 28 % 0 mm
13:02 16.8 °C -1.3 °C 1030.4 hPa East 1.6 km/h 11.3 km/h 29 % 0 mm
13:07 17.1 °C -0.2 °C 1030 hPa Calm   11.3 km/h 31 % 0 mm
13:12 17.4 °C -1.3 °C 1030 hPa SSE 4.8 km/h 11.3 km/h 28 % 0 mm
13:17 17.5 °C -1.2 °C 1030 hPa ENE 4.8 km/h 9.7 km/h 28 % 0 mm
13:22 17.6 °C -0.7 °C 1029.7 hPa SE 1.6 km/h 8 km/h 29 % 0 mm
13:27 17.4 °C -1.3 °C 1029.7 hPa SSE 3.2 km/h 11.3 km/h 28 % 0 mm
13:32 17.6 °C -0.2 °C 1029.3 hPa Calm   11.3 km/h 30 % 0 mm
13:42 17.9 °C -1.9 °C 1029.3 hPa NNW 3.2 km/h 9.7 km/h 26 % 0 mm
13:47 17.7 °C -1.5 °C 1029.3 hPa ENE 1.6 km/h 11.3 km/h 27 % 0 mm
13:52 17.8 °C -1 °C 1029.3 hPa NW 1.6 km/h 11.3 km/h 28 % 0 mm
13:57 17.9 °C -0.9 °C 1029.3 hPa East 6.4 km/h 11.3 km/h 28 % 0 mm
14:02 17.9 °C -0.9 °C 1029 hPa ENE 4.8 km/h 11.3 km/h 28 % 0 mm
14:07 18 °C -1.8 °C 1029 hPa Calm   11.3 km/h 26 % 0 mm
14:12 17.8 °C -2 °C 1029 hPa NW 6.4 km/h 9.7 km/h 26 % 0 mm
14:17 17.7 °C -2.1 °C 1029 hPa NW 1.6 km/h 11.3 km/h 26 % 0 mm
14:27 18.3 °C -2.1 °C 1028.7 hPa Calm   11.3 km/h 25 % 0 mm
14:32 18.4 °C -1.5 °C 1028.7 hPa North 4.8 km/h 8 km/h 26 % 0 mm
14:37 18.6 °C -1.3 °C 1028.7 hPa NNE 1.6 km/h 8 km/h 26 % 0 mm
14:42 18.6 °C -1.8 °C 1028.7 hPa NNW 1.6 km/h 8 km/h 25 % 0 mm
14:47 18.5 °C -1.4 °C 1028.7 hPa ENE 4.8 km/h 9.7 km/h 26 % 0 mm
14:52 18.4 °C -1.5 °C 1028.7 hPa ESE 3.2 km/h 9.7 km/h 26 % 0 mm
14:57 18.4 °C -1.5 °C 1028.7 hPa East 4.8 km/h 9.7 km/h 26 % 0 mm
15:02 18.4 °C -1.5 °C 1028.7 hPa ESE 1.6 km/h 9.7 km/h 26 % 0 mm
15:07 18.6 °C -1.3 °C 1028.7 hPa NNW 4.8 km/h 9.7 km/h 26 % 0 mm
15:12 18.6 °C -1.8 °C 1028.7 hPa NNW 6.4 km/h 9.7 km/h 25 % 0 mm
15:17 18.5 °C -1.4 °C 1028.7 hPa NNW 4.8 km/h 8 km/h 26 % 0 mm
15:22 18.8 °C -1.1 °C 1028.7 hPa NNW 1.6 km/h 8 km/h 26 % 0 mm
15:27 18.6 °C -1.8 °C 1028.7 hPa ENE 3.2 km/h 11.3 km/h 25 % 0 mm
15:32 18.7 °C -1.7 °C 1028.7 hPa NNE 1.6 km/h 11.3 km/h 25 % 0 mm
15:37 18.7 °C -1.7 °C 1028.7 hPa NW 1.6 km/h 11.3 km/h 25 % 0 mm
15:42 18.7 °C -1.7 °C 1028.3 hPa Calm   6.4 km/h 25 % 0 mm
15:47 18.9 °C -1.6 °C 1028.7 hPa Calm   4.8 km/h 25 % 0 mm
15:52 19.2 °C -1.3 °C 1028.7 hPa Calm   6.4 km/h 25 % 0 mm
15:57 19.1 °C -1.4 °C 1028.7 hPa East 3.2 km/h 6.4 km/h 25 % 0 mm
16:02 18.8 °C -1.7 °C 1028.7 hPa ESE 1.6 km/h 6.4 km/h 25 % 0 mm
16:07 18.8 °C -1.7 °C 1028.7 hPa NNE 3.2 km/h 6.4 km/h 25 % 0 mm
16:12 18.8 °C -2.2 °C 1028.7 hPa WNW 1.6 km/h 6.4 km/h 24 % 0 mm
16:17 18.7 °C -1.7 °C 1028.7 hPa ENE 3.2 km/h 6.4 km/h 25 % 0 mm
16:22 18.6 °C -1.8 °C 1028.7 hPa WNW 3.2 km/h 6.4 km/h 25 % 0 mm
16:27 18.6 °C -1.8 °C 1028.7 hPa NE 3.2 km/h 4.8 km/h 25 % 0 mm
16:32 18.5 °C -1.9 °C 1028.7 hPa NE 1.6 km/h 4.8 km/h 25 % 0 mm
16:37 18.5 °C -1.4 °C 1028.7 hPa Calm   4.8 km/h 26 % 0 mm
16:42 18.4 °C -1.5 °C 1028.7 hPa ENE 1.6 km/h 4.8 km/h 26 % 0 mm
16:47 18.4 °C -2 °C 1028.7 hPa East 1.6 km/h 4.8 km/h 25 % 0 mm
16:52 18.2 °C -1.6 °C 1028.7 hPa Calm   4.8 km/h 26 % 0 mm
16:57 18.1 °C -1.7 °C 1029 hPa ESE 1.6 km/h 4.8 km/h 26 % 0 mm
17:02 18 °C -1.3 °C 1029 hPa Calm   4.8 km/h 27 % 0 mm
17:07 17.8 °C -1.5 °C 1029 hPa NNW 4.8 km/h 4.8 km/h 27 % 0 mm
17:12 17.6 °C -2.1 °C 1029 hPa NNW 3.2 km/h 4.8 km/h 26 % 0 mm
17:17 17.4 °C -1.8 °C 1029 hPa NW 3.2 km/h 4.8 km/h 27 % 0 mm
17:22 17.3 °C -1.4 °C 1029 hPa Calm   6.4 km/h 28 % 0 mm
17:27 17.1 °C -1.6 °C 1029 hPa East 1.6 km/h 6.4 km/h 28 % 0 mm
17:32 16.9 °C -1.7 °C 1029 hPa Calm   6.4 km/h 28 % 0 mm
17:37 16.7 °C -1.9 °C 1029.3 hPa Calm   3.2 km/h 28 % 0 mm
17:42 16.4 °C -1.7 °C 1029.3 hPa Calm   1.6 km/h 29 % 0 mm
17:47 16.2 °C -1.4 °C 1029.3 hPa Calm   1.6 km/h 30 % 0 mm
17:52 15.9 °C -1.2 °C 1029.3 hPa Calm   1.6 km/h 31 % 0 mm
17:57 15.7 °C -1 °C 1029.3 hPa Calm   1.6 km/h 32 % 0 mm
18:02 15.2 °C -1 °C 1029.3 hPa Calm   1.6 km/h 33 % 0 mm
18:07 14.6 °C -1.1 °C 1029.3 hPa Calm   1.6 km/h 34 % 0 mm
18:12 14 °C -1.2 °C 1029.3 hPa Calm     35 % 0 mm
18:17 13.4 °C -1 °C 1029.3 hPa Calm     37 % 0 mm
18:22 12.9 °C -0.4 °C 1029.3 hPa Calm     40 % 0 mm
18:27 12.4 °C -0.5 °C 1029.7 hPa Calm     41 % 0 mm
18:32 11.9 °C -0.3 °C 1029.7 hPa Calm     43 % 0 mm
18:37 11.6 °C 0.4 °C 1029.7 hPa Calm   1.6 km/h 46 % 0 mm
18:42 11.6 °C 0.7 °C 1029.7 hPa Calm   1.6 km/h 47 % 0 mm
18:47 11.6 °C 1 °C 1029.7 hPa Calm   1.6 km/h 48 % 0 mm
18:52 11.4 °C 0.8 °C 1029.7 hPa Calm   1.6 km/h 48 % 0 mm
18:57 11.3 °C 1 °C 1029.7 hPa Calm   3.2 km/h 49 % 0 mm
19:02 11.1 °C 0.5 °C 1029.7 hPa Calm   3.2 km/h 48 % 0 mm
19:07 11.2 °C 0.6 °C 1029.7 hPa Calm   3.2 km/h 48 % 0 mm
19:12 11.1 °C 0.2 °C 1029.7 hPa Calm   3.2 km/h 47 % 0 mm
19:17 11.1 °C 0.2 °C 1029.7 hPa Calm   3.2 km/h 47 % 0 mm
19:22 11 °C 0.1 °C 1029.7 hPa Calm   3.2 km/h 47 % 0 mm
19:27 10.9 °C 0 °C 1030 hPa Calm   1.6 km/h 47 % 0 mm
19:32 10.6 °C -0.2 °C 1030 hPa Calm   1.6 km/h 47 % 0 mm
19:37 10 °C -0.5 °C 1030 hPa Calm   1.6 km/h 48 % 0 mm
19:42 9.4 °C -0.5 °C 1030 hPa Calm     50 % 0 mm
19:47 8.9 °C -0.4 °C 1030 hPa Calm     52 % 0 mm
19:52 8.4 °C -0.6 °C 1030 hPa Calm     53 % 0 mm
19:57 8.2 °C -0.3 °C 1030 hPa Calm     55 % 0 mm
20:02 7.8 °C -0.4 °C 1030 hPa Calm     56 % 0 mm
20:07 7.7 °C 0 °C 1030 hPa Calm     58 % 0 mm
20:12 7.8 °C 0.3 °C 1030.4 hPa Calm     59 % 0 mm
20:17 8.1 °C 0.8 °C 1030.4 hPa Calm     60 % 0 mm
20:22 8.2 °C 0.9 °C 1030.4 hPa Calm     60 % 0 mm
20:27 8.2 °C 0.9 °C 1030.4 hPa Calm     60 % 0 mm
20:32 8.1 °C 1 °C 1030.4 hPa Calm     61 % 0 mm
20:37 7.9 °C 0.8 °C 1030.4 hPa Calm     61 % 0 mm
20:42 7.6 °C 0.6 °C 1030 hPa Calm     61 % 0 mm
20:47 7.2 °C 0.2 °C 1030.4 hPa Calm     61 % 0 mm
20:52 6.7 °C 0.2 °C 1030 hPa Calm     63 % 0 mm
20:57 6.3 °C 0 °C 1030.4 hPa Calm     64 % 0 mm
21:02 6 °C -0.1 °C 1030 hPa Calm     65 % 0 mm
21:07 5.8 °C 0.1 °C 1030 hPa Calm     67 % 0 mm
21:12 5.6 °C 0.2 °C 1030 hPa Calm     68 % 0 mm
21:17 5.4 °C 0.2 °C 1030 hPa Calm     69 % 0 mm
21:22 5.4 °C 0.6 °C 1030 hPa Calm     71 % 0 mm
21:27 5.4 °C 0.6 °C 1030 hPa Calm     71 % 0 mm
21:32 5.3 °C 0.5 °C 1030.4 hPa Calm     71 % 0 mm
21:37 5.3 °C 0.9 °C 1030.4 hPa Calm     73 % 0 mm
21:42 5.8 °C 1.3 °C 1030.4 hPa Calm   1.6 km/h 73 % 0 mm
21:47 5.9 °C 1.2 °C 1030.4 hPa Calm   1.6 km/h 72 % 0 mm
21:52 5.8 °C 0.9 °C 1030.4 hPa Calm   1.6 km/h 71 % 0 mm
21:57 5.6 °C 1.1 °C 1030.4 hPa Calm     73 % 0 mm
22:02 5.6 °C 1.3 °C 1030.4 hPa Calm     74 % 0 mm
22:07 5.7 °C 1.4 °C 1030.4 hPa Calm     74 % 0 mm
22:12 5.8 °C 1.5 °C 1030.4 hPa Calm     74 % 0 mm
22:17 5.7 °C 1.2 °C 1030.4 hPa Calm     73 % 0 mm
22:22 5.5 °C 1 °C 1030.4 hPa Calm     73 % 0 mm
22:27 5.2 °C 0.8 °C 1030.4 hPa Calm     73 % 0 mm
22:32 5.2 °C 0.9 °C 1030.4 hPa Calm   1.6 km/h 74 % 0 mm
22:38 4.9 °C 0.7 °C 1030.4 hPa Calm   1.6 km/h 74 % 0 mm
22:43 4.8 °C 0.9 °C 1030.7 hPa SE 3.2 km/h 3.2 km/h 76 % 0 mm
22:48 4.8 °C 1.1 °C 1030.7 hPa Calm   4.8 km/h 77 % 0 mm
22:53 4.8 °C 0.9 °C 1030.4 hPa Calm   4.8 km/h 76 % 0 mm
22:58 4.8 °C 1.1 °C 1030.4 hPa Calm   4.8 km/h 77 % 0 mm
23:03 4.9 °C 1.2 °C 1030.4 hPa Calm     77 % 0 mm
23:08 4.8 °C 1.1 °C 1030.4 hPa Calm     77 % 0 mm
23:13 4.8 °C 1.1 °C 1030.4 hPa Calm     77 % 0 mm
23:18 4.7 °C 1.2 °C 1030.4 hPa Calm     78 % 0 mm
23:23 4.7 °C 1 °C 1030.4 hPa Calm   1.6 km/h 77 % 0 mm
23:28 4.7 °C 1.2 °C 1030.4 hPa Calm   1.6 km/h 78 % 0 mm
23:33 4.5 °C 0.8 °C 1030.4 hPa Calm   1.6 km/h 77 % 0 mm
23:38 4.3 °C 1 °C 1030.4 hPa Calm     79 % 0 mm
23:43 4.2 °C 0.7 °C 1030.4 hPa Calm     78 % 0 mm
23:48 3.9 °C 0.6 °C 1030.4 hPa Calm     79 % 0 mm
23:53 3.7 °C 0.6 °C 1030.4 hPa Calm     80 % 0 mm
23:58 3.5 °C 0.4 °C 1030.4 hPa Calm     80 % 0 mm
Spring, Texas: Villages of Bridgestone
Compliments of Weather Underground - 2.75 mb

Script developed by  Jim McMurry - jmcmurry@mwt.net Adapted for the template by  Wim van der Kuil - Leuven-Template.eu

You find our weather info also at:

UK Metoffice

WeatherCloud

Weather Underground

Mid-South Weather Network

AWEKAS

Citizen Weather Observer Program (CWOP)

HAMweather, WeatherForYou, PWS Weather

Equipment we use:

Weather-station
Davis Vantage Vue

Weather-program
Meteohub

Weather-server
Debian 7.9 x86 (Guest)

Provider
DreamHost

Davis Vantage Vue

Meteohub

Debian 7.9 x86 (Guest)

DreamHost